sensor_id;sensor_type;location;lat;lon;timestamp;P1;durP1;ratioP1;P2;durP2;ratioP2
70247;SDS011;57641;51.416;5.506;2023-05-07T00:00:37;8.50;;;6.70;;
70247;SDS011;57641;51.416;5.506;2023-05-07T00:03:03;9.52;;;6.38;;
70247;SDS011;57641;51.416;5.506;2023-05-07T00:05:29;8.13;;;7.00;;
70247;SDS011;57641;51.416;5.506;2023-05-07T00:07:54;9.07;;;6.47;;
70247;SDS011;57641;51.416;5.506;2023-05-07T00:10:20;9.02;;;7.40;;
70247;SDS011;57641;51.416;5.506;2023-05-07T00:12:45;8.55;;;6.85;;
70247;SDS011;57641;51.416;5.506;2023-05-07T00:15:11;10.07;;;7.05;;
70247;SDS011;57641;51.416;5.506;2023-05-07T00:17:37;11.45;;;7.70;;
70247;SDS011;57641;51.416;5.506;2023-05-07T00:20:03;8.45;;;7.45;;
70247;SDS011;57641;51.416;5.506;2023-05-07T00:22:30;8.68;;;7.40;;
70247;SDS011;57641;51.416;5.506;2023-05-07T00:24:58;10.07;;;7.10;;
70247;SDS011;57641;51.416;5.506;2023-05-07T00:27:24;9.82;;;7.80;;
70247;SDS011;57641;51.416;5.506;2023-05-07T00:29:50;10.13;;;7.22;;
70247;SDS011;57641;51.416;5.506;2023-05-07T00:32:16;8.95;;;7.60;;
70247;SDS011;57641;51.416;5.506;2023-05-07T00:34:42;9.93;;;8.30;;
70247;SDS011;57641;51.416;5.506;2023-05-07T00:37:08;11.50;;;8.70;;
70247;SDS011;57641;51.416;5.506;2023-05-07T00:39:34;11.07;;;9.07;;
70247;SDS011;57641;51.416;5.506;2023-05-07T00:42:00;12.63;;;9.73;;
70247;SDS011;57641;51.416;5.506;2023-05-07T00:44:28;12.57;;;9.35;;
70247;SDS011;57641;51.416;5.506;2023-05-07T00:46:55;13.70;;;9.68;;
70247;SDS011;57641;51.416;5.506;2023-05-07T00:49:22;11.75;;;8.85;;
70247;SDS011;57641;51.416;5.506;2023-05-07T00:51:54;12.43;;;9.57;;
70247;SDS011;57641;51.416;5.506;2023-05-07T00:54:23;12.35;;;8.93;;
70247;SDS011;57641;51.416;5.506;2023-05-07T00:56:49;11.35;;;8.95;;
70247;SDS011;57641;51.416;5.506;2023-05-07T00:59:15;11.73;;;9.75;;
70247;SDS011;57641;51.416;5.506;2023-05-07T01:01:40;11.93;;;9.30;;
70247;SDS011;57641;51.416;5.506;2023-05-07T01:04:06;13.95;;;10.18;;
70247;SDS011;57641;51.416;5.506;2023-05-07T01:06:31;12.07;;;9.23;;
70247;SDS011;57641;51.416;5.506;2023-05-07T01:08:58;12.43;;;9.40;;
70247;SDS011;57641;51.416;5.506;2023-05-07T01:11:24;15.73;;;9.93;;
70247;SDS011;57641;51.416;5.506;2023-05-07T01:13:50;13.30;;;9.73;;
70247;SDS011;57641;51.416;5.506;2023-05-07T01:16:17;12.98;;;9.93;;
70247;SDS011;57641;51.416;5.506;2023-05-07T01:18:42;12.20;;;9.98;;
70247;SDS011;57641;51.416;5.506;2023-05-07T01:21:08;13.18;;;10.63;;
70247;SDS011;57641;51.416;5.506;2023-05-07T01:23:36;15.00;;;10.80;;
70247;SDS011;57641;51.416;5.506;2023-05-07T01:26:03;14.63;;;10.57;;
70247;SDS011;57641;51.416;5.506;2023-05-07T01:28:28;20.13;;;13.02;;
70247;SDS011;57641;51.416;5.506;2023-05-07T01:30:54;14.38;;;11.07;;
70247;SDS011;57641;51.416;5.506;2023-05-07T01:33:23;17.77;;;12.38;;
70247;SDS011;57641;51.416;5.506;2023-05-07T01:35:52;17.65;;;11.88;;
70247;SDS011;57641;51.416;5.506;2023-05-07T01:38:18;18.00;;;12.07;;
70247;SDS011;57641;51.416;5.506;2023-05-07T01:40:47;16.63;;;12.32;;
70247;SDS011;57641;51.416;5.506;2023-05-07T01:43:12;18.25;;;13.10;;
70247;SDS011;57641;51.416;5.506;2023-05-07T01:45:38;19.33;;;13.45;;
70247;SDS011;57641;51.416;5.506;2023-05-07T01:48:05;22.67;;;14.65;;
70247;SDS011;57641;51.416;5.506;2023-05-07T01:50:32;16.83;;;12.45;;
70247;SDS011;57641;51.416;5.506;2023-05-07T01:52:59;17.35;;;12.38;;
70247;SDS011;57641;51.416;5.506;2023-05-07T01:55:26;18.38;;;13.30;;
70247;SDS011;57641;51.416;5.506;2023-05-07T01:57:52;21.98;;;13.50;;
70247;SDS011;57641;51.416;5.506;2023-05-07T02:00:18;19.13;;;13.20;;
70247;SDS011;57641;51.416;5.506;2023-05-07T02:02:44;17.75;;;13.05;;
70247;SDS011;57641;51.416;5.506;2023-05-07T02:05:12;21.25;;;13.48;;
70247;SDS011;57641;51.416;5.506;2023-05-07T02:07:38;17.58;;;12.48;;
70247;SDS011;57641;51.416;5.506;2023-05-07T02:10:03;17.70;;;12.50;;
70247;SDS011;57641;51.416;5.506;2023-05-07T02:12:30;20.52;;;14.32;;
70247;SDS011;57641;51.416;5.506;2023-05-07T02:14:55;17.55;;;13.57;;
70247;SDS011;57641;51.416;5.506;2023-05-07T02:17:20;19.05;;;13.88;;
70247;SDS011;57641;51.416;5.506;2023-05-07T02:19:46;21.15;;;15.23;;
70247;SDS011;57641;51.416;5.506;2023-05-07T02:22:12;19.45;;;14.70;;
70247;SDS011;57641;51.416;5.506;2023-05-07T02:24:37;23.65;;;15.30;;
70247;SDS011;57641;51.416;5.506;2023-05-07T02:27:03;20.27;;;13.90;;
70247;SDS011;57641;51.416;5.506;2023-05-07T02:29:29;20.88;;;14.82;;
70247;SDS011;57641;51.416;5.506;2023-05-07T02:31:54;20.50;;;14.32;;
70247;SDS011;57641;51.416;5.506;2023-05-07T02:34:20;18.65;;;13.30;;
70247;SDS011;57641;51.416;5.506;2023-05-07T02:36:46;19.70;;;13.52;;
70247;SDS011;57641;51.416;5.506;2023-05-07T02:39:12;19.83;;;13.63;;
70247;SDS011;57641;51.416;5.506;2023-05-07T02:41:38;17.77;;;13.18;;
70247;SDS011;57641;51.416;5.506;2023-05-07T02:44:04;20.05;;;12.90;;
70247;SDS011;57641;51.416;5.506;2023-05-07T02:46:30;19.38;;;13.80;;
70247;SDS011;57641;51.416;5.506;2023-05-07T02:48:56;21.98;;;13.35;;
70247;SDS011;57641;51.416;5.506;2023-05-07T02:51:21;18.90;;;13.52;;
70247;SDS011;57641;51.416;5.506;2023-05-07T02:53:47;18.08;;;13.48;;
70247;SDS011;57641;51.416;5.506;2023-05-07T02:56:13;20.85;;;14.20;;
70247;SDS011;57641;51.416;5.506;2023-05-07T02:58:39;22.70;;;14.45;;
70247;SDS011;57641;51.416;5.506;2023-05-07T03:01:04;24.45;;;16.38;;
70247;SDS011;57641;51.416;5.506;2023-05-07T03:03:30;20.45;;;13.80;;
70247;SDS011;57641;51.416;5.506;2023-05-07T03:05:56;20.27;;;14.10;;
70247;SDS011;57641;51.416;5.506;2023-05-07T03:08:22;20.23;;;14.73;;
70247;SDS011;57641;51.416;5.506;2023-05-07T03:10:47;20.40;;;14.27;;
70247;SDS011;57641;51.416;5.506;2023-05-07T03:13:12;23.67;;;15.25;;
70247;SDS011;57641;51.416;5.506;2023-05-07T03:15:38;22.92;;;14.90;;
70247;SDS011;57641;51.416;5.506;2023-05-07T03:18:03;20.52;;;15.38;;
70247;SDS011;57641;51.416;5.506;2023-05-07T03:20:29;25.08;;;16.30;;
70247;SDS011;57641;51.416;5.506;2023-05-07T03:22:55;24.42;;;15.48;;
70247;SDS011;57641;51.416;5.506;2023-05-07T03:25:20;21.20;;;14.85;;
70247;SDS011;57641;51.416;5.506;2023-05-07T03:27:46;24.65;;;16.02;;
70247;SDS011;57641;51.416;5.506;2023-05-07T03:30:11;22.35;;;15.20;;
70247;SDS011;57641;51.416;5.506;2023-05-07T03:32:37;23.98;;;16.15;;
70247;SDS011;57641;51.416;5.506;2023-05-07T03:35:03;23.92;;;16.27;;
70247;SDS011;57641;51.416;5.506;2023-05-07T03:37:29;23.52;;;15.48;;
70247;SDS011;57641;51.416;5.506;2023-05-07T03:39:54;22.23;;;15.70;;
70247;SDS011;57641;51.416;5.506;2023-05-07T03:42:20;22.95;;;15.50;;
70247;SDS011;57641;51.416;5.506;2023-05-07T03:44:45;26.25;;;17.52;;
70247;SDS011;57641;51.416;5.506;2023-05-07T03:47:11;21.45;;;15.75;;
70247;SDS011;57641;51.416;5.506;2023-05-07T03:49:38;27.05;;;15.70;;
70247;SDS011;57641;51.416;5.506;2023-05-07T03:52:04;25.45;;;16.48;;
70247;SDS011;57641;51.416;5.506;2023-05-07T03:54:30;22.98;;;15.30;;
70247;SDS011;57641;51.416;5.506;2023-05-07T03:56:56;26.75;;;16.48;;
70247;SDS011;57641;51.416;5.506;2023-05-07T03:59:21;24.85;;;16.98;;
70247;SDS011;57641;51.416;5.506;2023-05-07T04:01:47;24.33;;;16.98;;
70247;SDS011;57641;51.416;5.506;2023-05-07T04:04:14;24.30;;;16.88;;
70247;SDS011;57641;51.416;5.506;2023-05-07T04:06:39;26.58;;;16.48;;
70247;SDS011;57641;51.416;5.506;2023-05-07T04:09:05;22.95;;;15.35;;
70247;SDS011;57641;51.416;5.506;2023-05-07T04:11:31;22.58;;;15.85;;
70247;SDS011;57641;51.416;5.506;2023-05-07T04:13:57;27.27;;;17.27;;
70247;SDS011;57641;51.416;5.506;2023-05-07T04:16:22;24.52;;;16.35;;
70247;SDS011;57641;51.416;5.506;2023-05-07T04:18:48;23.08;;;16.55;;
70247;SDS011;57641;51.416;5.506;2023-05-07T04:21:17;24.30;;;17.02;;
70247;SDS011;57641;51.416;5.506;2023-05-07T04:23:45;23.15;;;17.05;;
70247;SDS011;57641;51.416;5.506;2023-05-07T04:26:11;25.45;;;17.90;;
70247;SDS011;57641;51.416;5.506;2023-05-07T04:28:37;28.60;;;18.20;;
70247;SDS011;57641;51.416;5.506;2023-05-07T04:31:04;27.33;;;18.02;;
70247;SDS011;57641;51.416;5.506;2023-05-07T04:33:30;26.02;;;17.38;;
70247;SDS011;57641;51.416;5.506;2023-05-07T04:35:56;26.48;;;17.80;;
70247;SDS011;57641;51.416;5.506;2023-05-07T04:38:22;26.60;;;18.50;;
70247;SDS011;57641;51.416;5.506;2023-05-07T04:40:49;28.33;;;18.95;;
70247;SDS011;57641;51.416;5.506;2023-05-07T04:43:16;25.50;;;16.55;;
70247;SDS011;57641;51.416;5.506;2023-05-07T04:45:41;29.08;;;19.50;;
70247;SDS011;57641;51.416;5.506;2023-05-07T04:48:10;25.38;;;16.98;;
70247;SDS011;57641;51.416;5.506;2023-05-07T04:50:36;25.25;;;17.52;;
70247;SDS011;57641;51.416;5.506;2023-05-07T04:53:01;27.15;;;16.73;;
70247;SDS011;57641;51.416;5.506;2023-05-07T04:55:28;27.90;;;17.77;;
70247;SDS011;57641;51.416;5.506;2023-05-07T04:57:53;30.13;;;18.92;;
70247;SDS011;57641;51.416;5.506;2023-05-07T05:00:19;28.33;;;18.25;;
70247;SDS011;57641;51.416;5.506;2023-05-07T05:02:45;25.80;;;18.00;;
70247;SDS011;57641;51.416;5.506;2023-05-07T05:05:10;29.17;;;19.30;;
70247;SDS011;57641;51.416;5.506;2023-05-07T05:07:36;26.15;;;17.52;;
70247;SDS011;57641;51.416;5.506;2023-05-07T05:10:02;31.80;;;19.38;;
70247;SDS011;57641;51.416;5.506;2023-05-07T05:12:30;30.63;;;20.77;;
70247;SDS011;57641;51.416;5.506;2023-05-07T05:14:56;30.40;;;20.65;;
70247;SDS011;57641;51.416;5.506;2023-05-07T05:17:21;32.92;;;20.42;;
70247;SDS011;57641;51.416;5.506;2023-05-07T05:19:47;27.98;;;18.15;;
70247;SDS011;57641;51.416;5.506;2023-05-07T05:22:12;28.45;;;18.92;;
70247;SDS011;57641;51.416;5.506;2023-05-07T05:24:37;28.65;;;19.58;;
70247;SDS011;57641;51.416;5.506;2023-05-07T05:27:03;30.35;;;19.75;;
70247;SDS011;57641;51.416;5.506;2023-05-07T05:29:29;27.77;;;18.95;;
70247;SDS011;57641;51.416;5.506;2023-05-07T05:31:56;28.95;;;18.85;;
70247;SDS011;57641;51.416;5.506;2023-05-07T05:34:22;24.90;;;17.73;;
70247;SDS011;57641;51.416;5.506;2023-05-07T05:36:47;28.67;;;19.23;;
70247;SDS011;57641;51.416;5.506;2023-05-07T05:39:13;28.77;;;18.63;;
70247;SDS011;57641;51.416;5.506;2023-05-07T05:41:39;26.80;;;17.65;;
70247;SDS011;57641;51.416;5.506;2023-05-07T05:44:04;28.13;;;19.00;;
70247;SDS011;57641;51.416;5.506;2023-05-07T05:46:30;26.15;;;18.92;;
70247;SDS011;57641;51.416;5.506;2023-05-07T05:48:56;29.75;;;19.10;;
70247;SDS011;57641;51.416;5.506;2023-05-07T05:51:22;25.20;;;17.75;;
70247;SDS011;57641;51.416;5.506;2023-05-07T05:53:48;28.77;;;18.60;;
70247;SDS011;57641;51.416;5.506;2023-05-07T05:56:15;23.38;;;16.38;;
70247;SDS011;57641;51.416;5.506;2023-05-07T05:58:41;22.42;;;16.38;;
70247;SDS011;57641;51.416;5.506;2023-05-07T06:01:07;28.02;;;17.85;;
70247;SDS011;57641;51.416;5.506;2023-05-07T06:03:33;27.13;;;17.58;;
70247;SDS011;57641;51.416;5.506;2023-05-07T06:05:58;28.50;;;18.50;;
70247;SDS011;57641;51.416;5.506;2023-05-07T06:08:25;27.98;;;17.33;;
70247;SDS011;57641;51.416;5.506;2023-05-07T06:10:51;26.65;;;17.10;;
70247;SDS011;57641;51.416;5.506;2023-05-07T06:13:17;25.60;;;18.27;;
70247;SDS011;57641;51.416;5.506;2023-05-07T06:15:42;23.10;;;15.57;;
70247;SDS011;57641;51.416;5.506;2023-05-07T06:18:07;24.35;;;16.48;;
70247;SDS011;57641;51.416;5.506;2023-05-07T06:20:33;24.02;;;17.15;;
70247;SDS011;57641;51.416;5.506;2023-05-07T06:22:58;24.25;;;16.88;;
70247;SDS011;57641;51.416;5.506;2023-05-07T06:25:24;28.02;;;18.77;;
70247;SDS011;57641;51.416;5.506;2023-05-07T06:27:49;21.63;;;16.52;;
70247;SDS011;57641;51.416;5.506;2023-05-07T06:30:14;21.75;;;15.32;;
70247;SDS011;57641;51.416;5.506;2023-05-07T06:32:40;22.33;;;16.55;;
70247;SDS011;57641;51.416;5.506;2023-05-07T06:35:06;25.13;;;16.70;;
70247;SDS011;57641;51.416;5.506;2023-05-07T06:37:32;19.92;;;14.55;;
70247;SDS011;57641;51.416;5.506;2023-05-07T06:39:57;26.67;;;17.85;;
70247;SDS011;57641;51.416;5.506;2023-05-07T06:42:23;22.35;;;16.33;;
70247;SDS011;57641;51.416;5.506;2023-05-07T06:44:48;23.48;;;15.43;;
70247;SDS011;57641;51.416;5.506;2023-05-07T06:47:13;28.95;;;18.30;;
70247;SDS011;57641;51.416;5.506;2023-05-07T06:49:39;24.85;;;18.15;;
70247;SDS011;57641;51.416;5.506;2023-05-07T06:52:04;21.10;;;16.30;;
70247;SDS011;57641;51.416;5.506;2023-05-07T06:54:30;24.02;;;15.77;;
70247;SDS011;57641;51.416;5.506;2023-05-07T06:56:55;20.92;;;15.25;;
70247;SDS011;57641;51.416;5.506;2023-05-07T06:59:21;25.13;;;16.63;;
70247;SDS011;57641;51.416;5.506;2023-05-07T07:01:46;22.45;;;16.67;;
70247;SDS011;57641;51.416;5.506;2023-05-07T07:04:11;23.15;;;17.02;;
70247;SDS011;57641;51.416;5.506;2023-05-07T07:06:37;25.52;;;16.38;;
70247;SDS011;57641;51.416;5.506;2023-05-07T07:09:03;21.20;;;15.10;;
70247;SDS011;57641;51.416;5.506;2023-05-07T07:11:28;23.92;;;17.15;;
70247;SDS011;57641;51.416;5.506;2023-05-07T07:13:53;18.70;;;14.40;;
70247;SDS011;57641;51.416;5.506;2023-05-07T07:16:20;21.08;;;15.23;;
70247;SDS011;57641;51.416;5.506;2023-05-07T07:18:46;22.08;;;15.10;;
70247;SDS011;57641;51.416;5.506;2023-05-07T07:21:12;23.50;;;14.65;;
70247;SDS011;57641;51.416;5.506;2023-05-07T07:23:37;16.25;;;13.55;;
70247;SDS011;57641;51.416;5.506;2023-05-07T07:26:02;19.77;;;14.10;;
70247;SDS011;57641;51.416;5.506;2023-05-07T07:28:28;19.33;;;13.50;;
70247;SDS011;57641;51.416;5.506;2023-05-07T07:30:53;21.33;;;15.18;;
70247;SDS011;57641;51.416;5.506;2023-05-07T07:33:19;19.75;;;14.40;;
70247;SDS011;57641;51.416;5.506;2023-05-07T07:35:44;21.45;;;14.75;;
70247;SDS011;57641;51.416;5.506;2023-05-07T07:38:10;20.52;;;15.07;;
70247;SDS011;57641;51.416;5.506;2023-05-07T07:40:35;21.45;;;14.07;;
70247;SDS011;57641;51.416;5.506;2023-05-07T07:43:01;19.83;;;14.77;;
70247;SDS011;57641;51.416;5.506;2023-05-07T07:45:27;23.23;;;15.23;;
70247;SDS011;57641;51.416;5.506;2023-05-07T07:47:52;18.90;;;13.45;;
70247;SDS011;57641;51.416;5.506;2023-05-07T07:50:18;19.98;;;14.35;;
70247;SDS011;57641;51.416;5.506;2023-05-07T07:52:44;21.10;;;14.75;;
70247;SDS011;57641;51.416;5.506;2023-05-07T07:55:10;17.17;;;12.80;;
70247;SDS011;57641;51.416;5.506;2023-05-07T07:57:35;19.65;;;14.80;;
70247;SDS011;57641;51.416;5.506;2023-05-07T08:00:01;21.73;;;15.50;;
70247;SDS011;57641;51.416;5.506;2023-05-07T08:02:27;20.98;;;15.13;;
70247;SDS011;57641;51.416;5.506;2023-05-07T08:04:52;19.65;;;14.50;;
70247;SDS011;57641;51.416;5.506;2023-05-07T08:07:18;17.08;;;12.95;;
70247;SDS011;57641;51.416;5.506;2023-05-07T08:09:45;18.17;;;14.57;;
70247;SDS011;57641;51.416;5.506;2023-05-07T08:12:11;18.15;;;13.40;;
70247;SDS011;57641;51.416;5.506;2023-05-07T08:14:36;18.48;;;14.00;;
70247;SDS011;57641;51.416;5.506;2023-05-07T08:17:02;18.40;;;13.82;;
70247;SDS011;57641;51.416;5.506;2023-05-07T08:19:27;14.88;;;12.18;;
70247;SDS011;57641;51.416;5.506;2023-05-07T08:21:53;15.50;;;11.82;;
70247;SDS011;57641;51.416;5.506;2023-05-07T08:24:18;18.52;;;12.10;;
70247;SDS011;57641;51.416;5.506;2023-05-07T08:26:44;19.52;;;12.15;;
70247;SDS011;57641;51.416;5.506;2023-05-07T08:29:10;15.45;;;11.48;;
70247;SDS011;57641;51.416;5.506;2023-05-07T08:31:36;18.00;;;13.25;;
70247;SDS011;57641;51.416;5.506;2023-05-07T08:34:02;15.60;;;11.32;;
70247;SDS011;57641;51.416;5.506;2023-05-07T08:36:28;15.35;;;10.93;;
70247;SDS011;57641;51.416;5.506;2023-05-07T08:38:54;16.27;;;12.07;;
70247;SDS011;57641;51.416;5.506;2023-05-07T08:41:20;17.60;;;12.73;;
70247;SDS011;57641;51.416;5.506;2023-05-07T08:43:47;16.80;;;12.02;;
70247;SDS011;57641;51.416;5.506;2023-05-07T08:46:18;15.50;;;12.25;;
70247;SDS011;57641;51.416;5.506;2023-05-07T08:48:48;14.70;;;11.38;;
70247;SDS011;57641;51.416;5.506;2023-05-07T08:51:15;17.50;;;11.10;;
70247;SDS011;57641;51.416;5.506;2023-05-07T08:53:43;13.02;;;9.75;;
70247;SDS011;57641;51.416;5.506;2023-05-07T08:56:09;15.68;;;10.95;;
70247;SDS011;57641;51.416;5.506;2023-05-07T08:58:35;14.38;;;11.25;;
70247;SDS011;57641;51.416;5.506;2023-05-07T09:01:02;16.35;;;11.95;;
70247;SDS011;57641;51.416;5.506;2023-05-07T09:03:32;11.77;;;9.75;;
70247;SDS011;57641;51.416;5.506;2023-05-07T09:05:58;11.40;;;8.70;;
70247;SDS011;57641;51.416;5.506;2023-05-07T09:08:24;12.10;;;8.82;;
70247;SDS011;57641;51.416;5.506;2023-05-07T09:10:51;17.45;;;11.73;;
70247;SDS011;57641;51.416;5.506;2023-05-07T09:13:17;14.70;;;10.60;;
70247;SDS011;57641;51.416;5.506;2023-05-07T09:15:43;13.68;;;10.55;;
70247;SDS011;57641;51.416;5.506;2023-05-07T09:18:09;14.45;;;9.57;;
70247;SDS011;57641;51.416;5.506;2023-05-07T09:20:36;14.55;;;9.70;;
70247;SDS011;57641;51.416;5.506;2023-05-07T09:23:02;12.50;;;10.30;;
70247;SDS011;57641;51.416;5.506;2023-05-07T09:25:31;13.25;;;10.77;;
70247;SDS011;57641;51.416;5.506;2023-05-07T09:27:57;14.13;;;9.23;;
70247;SDS011;57641;51.416;5.506;2023-05-07T09:30:27;9.93;;;7.70;;
70247;SDS011;57641;51.416;5.506;2023-05-07T09:32:54;10.45;;;8.65;;
70247;SDS011;57641;51.416;5.506;2023-05-07T09:35:20;10.65;;;8.45;;
70247;SDS011;57641;51.416;5.506;2023-05-07T09:38:03;8.35;;;7.28;;
70247;SDS011;57641;51.416;5.506;2023-05-07T09:40:29;11.57;;;8.02;;
70247;SDS011;57641;51.416;5.506;2023-05-07T09:42:56;11.23;;;7.75;;
70247;SDS011;57641;51.416;5.506;2023-05-07T09:45:33;10.35;;;6.65;;
70247;SDS011;57641;51.416;5.506;2023-05-07T09:47:59;13.13;;;8.82;;
70247;SDS011;57641;51.416;5.506;2023-05-07T09:50:28;11.82;;;8.20;;
70247;SDS011;57641;51.416;5.506;2023-05-07T09:52:56;9.10;;;8.10;;
70247;SDS011;57641;51.416;5.506;2023-05-07T09:55:22;11.70;;;8.48;;
70247;SDS011;57641;51.416;5.506;2023-05-07T09:57:52;11.57;;;8.77;;
70247;SDS011;57641;51.416;5.506;2023-05-07T10:00:19;8.23;;;5.45;;
70247;SDS011;57641;51.416;5.506;2023-05-07T10:02:49;10.25;;;6.88;;
70247;SDS011;57641;51.416;5.506;2023-05-07T10:05:21;7.63;;;6.10;;
70247;SDS011;57641;51.416;5.506;2023-05-07T10:07:47;8.23;;;6.20;;
70247;SDS011;57641;51.416;5.506;2023-05-07T10:10:18;8.38;;;5.82;;
70247;SDS011;57641;51.416;5.506;2023-05-07T10:12:44;8.18;;;5.15;;
70247;SDS011;57641;51.416;5.506;2023-05-07T10:15:10;6.95;;;5.53;;
70247;SDS011;57641;51.416;5.506;2023-05-07T10:17:37;7.95;;;5.78;;
70247;SDS011;57641;51.416;5.506;2023-05-07T10:20:04;8.32;;;6.50;;
70247;SDS011;57641;51.416;5.506;2023-05-07T10:22:32;7.53;;;6.15;;
70247;SDS011;57641;51.416;5.506;2023-05-07T10:25:03;6.32;;;4.45;;
70247;SDS011;57641;51.416;5.506;2023-05-07T10:27:34;5.70;;;4.22;;
70247;SDS011;57641;51.416;5.506;2023-05-07T10:32:55;5.68;;;5.05;;
70247;SDS011;57641;51.416;5.506;2023-05-07T10:35:31;12.18;;;7.85;;
70247;SDS011;57641;51.416;5.506;2023-05-07T10:38:04;10.70;;;7.45;;
70247;SDS011;57641;51.416;5.506;2023-05-07T10:40:30;7.80;;;6.93;;
70247;SDS011;57641;51.416;5.506;2023-05-07T10:43:00;4.43;;;3.95;;
70247;SDS011;57641;51.416;5.506;2023-05-07T10:45:28;6.32;;;4.07;;
70247;SDS011;57641;51.416;5.506;2023-05-07T10:48:06;8.38;;;4.28;;
70247;SDS011;57641;51.416;5.506;2023-05-07T10:50:37;5.55;;;4.25;;
70247;SDS011;57641;51.416;5.506;2023-05-07T10:55:42;7.93;;;6.22;;
70247;SDS011;57641;51.416;5.506;2023-05-07T11:00:46;9.25;;;7.13;;
70247;SDS011;57641;51.416;5.506;2023-05-07T11:03:12;9.82;;;7.70;;
70247;SDS011;57641;51.416;5.506;2023-05-07T11:05:39;10.80;;;7.88;;
70247;SDS011;57641;51.416;5.506;2023-05-07T11:08:07;10.18;;;7.30;;
70247;SDS011;57641;51.416;5.506;2023-05-07T11:10:49;11.43;;;7.82;;
70247;SDS011;57641;51.416;5.506;2023-05-07T11:13:15;10.05;;;6.78;;
70247;SDS011;57641;51.416;5.506;2023-05-07T11:15:43;8.75;;;6.80;;
70247;SDS011;57641;51.416;5.506;2023-05-07T11:18:13;7.55;;;5.93;;
70247;SDS011;57641;51.416;5.506;2023-05-07T11:23:54;6.40;;;5.68;;
70247;SDS011;57641;51.416;5.506;2023-05-07T11:26:14;10.20;;;7.63;;
70247;SDS011;57641;51.416;5.506;2023-05-07T11:28:42;8.38;;;7.32;;
70247;SDS011;57641;51.416;5.506;2023-05-07T11:31:09;9.18;;;7.22;;
70247;SDS011;57641;51.416;5.506;2023-05-07T11:33:36;10.32;;;7.28;;
70247;SDS011;57641;51.416;5.506;2023-05-07T11:36:03;8.60;;;6.55;;
70247;SDS011;57641;51.416;5.506;2023-05-07T11:38:29;8.32;;;6.43;;
70247;SDS011;57641;51.416;5.506;2023-05-07T11:40:56;9.75;;;7.43;;
70247;SDS011;57641;51.416;5.506;2023-05-07T11:43:24;9.13;;;7.25;;
70247;SDS011;57641;51.416;5.506;2023-05-07T11:45:49;10.48;;;7.55;;
70247;SDS011;57641;51.416;5.506;2023-05-07T11:48:15;9.23;;;6.55;;
70247;SDS011;57641;51.416;5.506;2023-05-07T11:53:27;8.68;;;6.63;;
70247;SDS011;57641;51.416;5.506;2023-05-07T11:56:00;8.98;;;6.53;;
70247;SDS011;57641;51.416;5.506;2023-05-07T11:58:26;10.60;;;7.18;;
70247;SDS011;57641;51.416;5.506;2023-05-07T12:00:52;7.95;;;6.40;;
70247;SDS011;57641;51.416;5.506;2023-05-07T12:03:19;10.68;;;7.28;;
70247;SDS011;57641;51.416;5.506;2023-05-07T12:05:46;8.27;;;6.15;;
70247;SDS011;57641;51.416;5.506;2023-05-07T12:08:16;8.63;;;7.07;;
70247;SDS011;57641;51.416;5.506;2023-05-07T12:10:43;8.80;;;6.78;;
70247;SDS011;57641;51.416;5.506;2023-05-07T12:13:16;9.30;;;6.88;;
70247;SDS011;57641;51.416;5.506;2023-05-07T12:15:42;9.93;;;6.80;;
70247;SDS011;57641;51.416;5.506;2023-05-07T12:18:08;8.00;;;6.60;;
70247;SDS011;57641;51.416;5.506;2023-05-07T12:20:34;8.77;;;6.43;;
70247;SDS011;57641;51.416;5.506;2023-05-07T12:23:01;6.95;;;5.10;;
70247;SDS011;57641;51.416;5.506;2023-05-07T12:25:40;8.45;;;6.03;;
70247;SDS011;57641;51.416;5.506;2023-05-07T12:28:14;12.07;;;6.35;;
70247;SDS011;57641;51.416;5.506;2023-05-07T12:30:40;16.65;;;6.50;;
70247;SDS011;57641;51.416;5.506;2023-05-07T12:33:08;16.00;;;7.95;;
70247;SDS011;57641;51.416;5.506;2023-05-07T12:35:40;12.35;;;7.90;;
70247;SDS011;57641;51.416;5.506;2023-05-07T12:38:10;7.10;;;4.47;;
70247;SDS011;57641;51.416;5.506;2023-05-07T12:43:24;8.02;;;5.70;;
70247;SDS011;57641;51.416;5.506;2023-05-07T12:45:53;8.75;;;4.30;;
70247;SDS011;57641;51.416;5.506;2023-05-07T12:48:20;4.82;;;2.95;;
70247;SDS011;57641;51.416;5.506;2023-05-07T12:50:50;3.88;;;2.88;;
70247;SDS011;57641;51.416;5.506;2023-05-07T12:53:16;6.97;;;3.40;;
70247;SDS011;57641;51.416;5.506;2023-05-07T12:55:46;7.43;;;3.92;;
70247;SDS011;57641;51.416;5.506;2023-05-07T12:58:26;8.15;;;3.65;;
70247;SDS011;57641;51.416;5.506;2023-05-07T13:00:53;6.20;;;3.03;;
70247;SDS011;57641;51.416;5.506;2023-05-07T13:03:23;7.32;;;2.90;;
70247;SDS011;57641;51.416;5.506;2023-05-07T13:05:50;6.05;;;3.30;;
70247;SDS011;57641;51.416;5.506;2023-05-07T13:08:26;5.43;;;2.65;;
70247;SDS011;57641;51.416;5.506;2023-05-07T13:10:53;4.93;;;2.50;;
70247;SDS011;57641;51.416;5.506;2023-05-07T13:13:19;6.63;;;3.25;;
70247;SDS011;57641;51.416;5.506;2023-05-07T13:15:46;4.32;;;2.50;;
70247;SDS011;57641;51.416;5.506;2023-05-07T13:18:12;3.80;;;2.35;;
70247;SDS011;57641;51.416;5.506;2023-05-07T13:20:37;3.50;;;2.58;;
70247;SDS011;57641;51.416;5.506;2023-05-07T13:23:03;4.43;;;2.90;;
70247;SDS011;57641;51.416;5.506;2023-05-07T13:25:29;5.43;;;3.00;;
70247;SDS011;57641;51.416;5.506;2023-05-07T13:27:58;4.18;;;2.97;;
70247;SDS011;57641;51.416;5.506;2023-05-07T13:30:24;4.43;;;3.20;;
70247;SDS011;57641;51.416;5.506;2023-05-07T13:32:50;3.83;;;2.88;;
70247;SDS011;57641;51.416;5.506;2023-05-07T13:35:17;5.50;;;2.83;;
70247;SDS011;57641;51.416;5.506;2023-05-07T13:37:42;5.05;;;3.53;;
70247;SDS011;57641;51.416;5.506;2023-05-07T13:40:08;5.50;;;3.10;;
70247;SDS011;57641;51.416;5.506;2023-05-07T13:42:34;7.55;;;3.72;;
70247;SDS011;57641;51.416;5.506;2023-05-07T13:45:00;6.85;;;3.67;;
70247;SDS011;57641;51.416;5.506;2023-05-07T13:47:25;6.68;;;3.75;;
70247;SDS011;57641;51.416;5.506;2023-05-07T13:49:51;6.68;;;3.80;;
70247;SDS011;57641;51.416;5.506;2023-05-07T13:52:17;8.95;;;4.63;;
70247;SDS011;57641;51.416;5.506;2023-05-07T13:54:42;9.75;;;4.65;;
70247;SDS011;57641;51.416;5.506;2023-05-07T13:57:08;7.30;;;4.28;;
70247;SDS011;57641;51.416;5.506;2023-05-07T13:59:33;7.18;;;4.78;;
70247;SDS011;57641;51.416;5.506;2023-05-07T14:01:59;6.05;;;4.22;;
70247;SDS011;57641;51.416;5.506;2023-05-07T14:04:24;9.23;;;4.75;;
70247;SDS011;57641;51.416;5.506;2023-05-07T14:06:50;8.82;;;4.97;;
70247;SDS011;57641;51.416;5.506;2023-05-07T14:09:16;9.98;;;4.60;;
70247;SDS011;57641;51.416;5.506;2023-05-07T14:11:41;11.27;;;4.70;;
70247;SDS011;57641;51.416;5.506;2023-05-07T14:14:07;9.75;;;4.43;;
70247;SDS011;57641;51.416;5.506;2023-05-07T14:16:36;6.20;;;3.67;;
70247;SDS011;57641;51.416;5.506;2023-05-07T14:19:02;5.07;;;3.08;;
70247;SDS011;57641;51.416;5.506;2023-05-07T14:21:27;4.50;;;3.10;;
70247;SDS011;57641;51.416;5.506;2023-05-07T14:23:53;4.55;;;3.15;;
70247;SDS011;57641;51.416;5.506;2023-05-07T14:26:18;3.60;;;2.67;;
70247;SDS011;57641;51.416;5.506;2023-05-07T14:28:45;4.88;;;2.78;;
70247;SDS011;57641;51.416;5.506;2023-05-07T14:31:12;4.25;;;2.83;;
70247;SDS011;57641;51.416;5.506;2023-05-07T14:33:37;5.68;;;3.88;;
70247;SDS011;57641;51.416;5.506;2023-05-07T14:36:03;7.45;;;3.40;;
70247;SDS011;57641;51.416;5.506;2023-05-07T14:38:28;5.82;;;3.33;;
70247;SDS011;57641;51.416;5.506;2023-05-07T14:40:55;4.72;;;3.47;;
70247;SDS011;57641;51.416;5.506;2023-05-07T14:43:21;4.22;;;3.00;;